Time,TemperatureF,DewpointF,PressureIn,WindDirection,WindDirectionDegrees,WindSpeedMPH,WindSpeedGustMPH,Humidity,HourlyPrecipIn,Conditions,Clouds,dailyrainin,SoftwareType,DateUTC
2013-02-20 00:11:00,45.0,33.0,-100.00,NNW,345,7.0,19.0,63,0.00,,,0.00,,2013-02-20 07:11:00,
2013-02-20 00:21:00,45.0,33.0,-100.00,NNW,345,7.0,19.0,63,0.00,,,0.00,,2013-02-20 07:21:00,
2013-02-20 00:31:00,45.0,33.0,-100.00,NNW,345,7.0,19.0,63,0.00,,,0.00,,2013-02-20 07:31:00,
2013-02-20 00:41:00,45.0,33.0,-100.00,NNW,345,7.0,19.0,63,0.00,,,0.00,,2013-02-20 07:41:00,
2013-02-20 00:51:00,45.0,33.0,-100.00,NNW,345,7.0,19.0,63,0.00,,,0.00,,2013-02-20 07:51:00,
2013-02-20 01:11:00,45.0,34.0,-100.00,NNW,344,8.0,19.0,65,0.00,,,0.00,,2013-02-20 08:11:00,
2013-02-20 01:21:00,45.0,34.0,-100.00,NNW,344,8.0,19.0,65,0.00,,,0.00,,2013-02-20 08:21:00,
2013-02-20 01:31:00,45.0,34.0,-100.00,NNW,344,8.0,19.0,65,0.00,,,0.00,,2013-02-20 08:31:00,
2013-02-20 01:41:00,45.0,34.0,-100.00,NNW,344,8.0,19.0,65,0.00,,,0.00,,2013-02-20 08:41:00,
2013-02-20 01:52:00,45.0,34.0,-100.00,NNW,344,8.0,19.0,65,0.00,,,0.00,,2013-02-20 08:52:00,
2013-02-20 02:11:00,44.0,33.0,-100.00,North,354,6.0,21.0,66,0.00,,,0.00,,2013-02-20 09:11:00,
2013-02-20 02:21:00,44.0,33.0,-100.00,North,354,6.0,21.0,66,0.00,,,0.00,,2013-02-20 09:21:00,
2013-02-20 02:31:00,44.0,33.0,-100.00,North,354,6.0,21.0,66,0.00,,,0.00,,2013-02-20 09:31:00,
2013-02-20 02:42:00,44.0,33.0,-100.00,North,354,6.0,21.0,66,0.00,,,0.00,,2013-02-20 09:42:00,
2013-02-20 02:51:00,44.0,33.0,-100.00,North,354,6.0,21.0,66,0.00,,,0.00,,2013-02-20 09:51:00,
2013-02-20 03:12:00,42.0,32.0,-100.00,NNW,342,2.0,12.0,68,0.00,,,0.00,,2013-02-20 10:12:00,
2013-02-20 03:22:00,42.0,32.0,-100.00,NNW,342,2.0,12.0,68,0.00,,,0.00,,2013-02-20 10:22:00,
2013-02-20 03:32:00,42.0,32.0,-100.00,NNW,342,2.0,12.0,68,0.00,,,0.00,,2013-02-20 10:32:00,
2013-02-20 03:42:00,42.0,32.0,-100.00,NNW,342,2.0,12.0,68,0.00,,,0.00,,2013-02-20 10:42:00,
2013-02-20 03:51:00,42.0,32.0,-100.00,NNW,342,2.0,12.0,68,0.00,,,0.00,,2013-02-20 10:51:00,
2013-02-20 04:21:00,42.0,33.0,-100.00,NNW,348,3.0,10.0,69,0.00,,,-99.99,,2013-02-20 11:21:00,
2013-02-20 04:32:00,42.0,33.0,-100.00,NNW,348,3.0,10.0,69,0.00,,,-99.99,,2013-02-20 11:32:00,
2013-02-20 04:42:00,42.0,33.0,-100.00,NNW,348,3.0,10.0,69,0.00,,,-99.99,,2013-02-20 11:42:00,
2013-02-20 04:52:00,42.0,33.0,-100.00,NNW,348,3.0,10.0,69,0.00,,,-99.99,,2013-02-20 11:52:00,
2013-02-20 05:12:00,40.0,31.0,-100.00,NNW,332,2.0,10.0,71,0.00,,,-99.99,,2013-02-20 12:12:00,
2013-02-20 05:21:00,40.0,31.0,-100.00,NNW,332,2.0,10.0,71,0.00,,,-99.99,,2013-02-20 12:21:00,
2013-02-20 05:32:00,40.0,31.0,-100.00,NNW,332,2.0,10.0,71,0.00,,,-99.99,,2013-02-20 12:32:00,
2013-02-20 05:42:00,40.0,31.0,-100.00,NNW,332,2.0,10.0,71,0.00,,,-99.99,,2013-02-20 12:42:00,
2013-02-20 05:52:00,40.0,31.0,-100.00,NNW,332,2.0,10.0,71,0.00,,,-99.99,,2013-02-20 12:52:00,
2013-02-20 06:11:00,41.0,33.0,-100.00,NW,321,3.0,8.0,73,0.00,,,0.00,,2013-02-20 13:11:00,
2013-02-20 06:22:00,41.0,33.0,-100.00,NW,321,3.0,8.0,73,0.00,,,0.00,,2013-02-20 13:22:00,
2013-02-20 06:32:00,41.0,33.0,-100.00,NW,321,3.0,8.0,73,0.00,,,0.00,,2013-02-20 13:32:00,
2013-02-20 06:42:00,41.0,33.0,-100.00,NW,321,3.0,8.0,73,0.00,,,0.00,,2013-02-20 13:42:00,
2013-02-20 06:51:00,41.0,33.0,-100.00,NW,321,3.0,8.0,73,0.00,,,0.00,,2013-02-20 13:51:00,
2013-02-20 07:21:00,40.0,32.0,-100.00,NNW,342,2.0,8.0,74,0.00,,,-99.99,,2013-02-20 14:21:00,
2013-02-20 07:32:00,40.0,32.0,-100.00,NNW,342,2.0,8.0,74,0.00,,,-99.99,,2013-02-20 14:32:00,
2013-02-20 07:42:00,40.0,32.0,-100.00,NNW,342,2.0,8.0,74,0.00,,,-99.99,,2013-02-20 14:42:00,
2013-02-20 07:52:00,40.0,32.0,-100.00,NNW,342,2.0,8.0,74,0.00,,,-99.99,,2013-02-20 14:52:00,
2013-02-20 08:11:00,42.0,34.0,-100.00,NNW,342,3.0,10.0,72,0.00,,,0.00,,2013-02-20 15:11:00,
2013-02-20 08:22:00,42.0,34.0,-100.00,NNW,342,3.0,10.0,72,0.00,,,0.00,,2013-02-20 15:22:00,
2013-02-20 08:32:00,42.0,34.0,-100.00,NNW,342,3.0,10.0,72,0.00,,,0.00,,2013-02-20 15:32:00,
2013-02-20 08:42:00,42.0,34.0,-100.00,NNW,342,3.0,10.0,72,0.00,,,0.00,,2013-02-20 15:42:00,
2013-02-20 08:51:00,42.0,34.0,-100.00,NNW,342,3.0,10.0,72,0.00,,,0.00,,2013-02-20 15:51:00,
2013-02-20 09:21:00,45.0,34.0,-100.00,North,356,6.0,15.0,64,0.00,,,0.00,,2013-02-20 16:21:00,
2013-02-20 09:32:00,45.0,34.0,-100.00,North,356,6.0,15.0,64,0.00,,,0.00,,2013-02-20 16:32:00,
2013-02-20 09:42:00,45.0,34.0,-100.00,North,356,6.0,15.0,64,0.00,,,0.00,,2013-02-20 16:42:00,
2013-02-20 09:52:00,45.0,34.0,-100.00,North,356,6.0,15.0,64,0.00,,,0.00,,2013-02-20 16:52:00,
2013-02-20 10:21:00,49.0,31.0,-100.00,North,0,8.0,25.0,50,0.00,,,0.00,,2013-02-20 17:21:00,
2013-02-20 10:32:00,49.0,31.0,-100.00,North,0,8.0,25.0,50,0.00,,,0.00,,2013-02-20 17:32:00,
2013-02-20 10:42:00,49.0,31.0,-100.00,North,0,8.0,25.0,50,0.00,,,0.00,,2013-02-20 17:42:00,
2013-02-20 10:52:00,49.0,31.0,-100.00,North,0,8.0,25.0,50,0.00,,,0.00,,2013-02-20 17:52:00,
2013-02-20 11:21:00,50.0,23.0,-100.00,North,353,9.0,22.0,34,0.00,,,0.00,,2013-02-20 18:21:00,
2013-02-20 11:32:00,50.0,23.0,-100.00,North,353,9.0,22.0,34,0.00,,,0.00,,2013-02-20 18:32:00,
2013-02-20 11:42:00,50.0,23.0,-100.00,North,353,9.0,22.0,34,0.00,,,0.00,,2013-02-20 18:42:00,
2013-02-20 11:52:00,50.0,23.0,-100.00,North,353,9.0,22.0,34,0.00,,,0.00,,2013-02-20 18:52:00,
2013-02-20 12:21:00,47.0,15.0,-100.00,NNW,344,10.0,26.0,27,0.00,,,0.00,,2013-02-20 19:21:00,
2013-02-20 12:31:00,47.0,15.0,-100.00,NNW,344,10.0,26.0,27,0.00,,,0.00,,2013-02-20 19:31:00,
2013-02-20 12:41:00,47.0,15.0,-100.00,NNW,344,10.0,26.0,27,0.00,,,0.00,,2013-02-20 19:41:00,
2013-02-20 12:52:00,47.0,15.0,-100.00,NNW,344,10.0,26.0,27,0.00,,,0.00,,2013-02-20 19:52:00,
2013-02-20 13:21:00,47.0,20.0,-100.00,NNW,346,7.0,23.0,34,0.00,,,0.00,,2013-02-20 20:21:00,
2013-02-20 13:31:00,47.0,20.0,-100.00,NNW,346,7.0,23.0,34,0.00,,,0.00,,2013-02-20 20:31:00,
2013-02-20 13:41:00,47.0,20.0,-100.00,NNW,346,7.0,23.0,34,0.00,,,0.00,,2013-02-20 20:41:00,
2013-02-20 13:51:00,47.0,20.0,-100.00,NNW,346,7.0,23.0,34,0.00,,,0.00,,2013-02-20 20:51:00,
2013-02-20 14:11:00,50.0,15.0,-100.00,NW,322,9.0,23.0,24,0.00,,,0.00,,2013-02-20 21:11:00,
2013-02-20 14:21:00,50.0,15.0,-100.00,NW,322,9.0,23.0,24,0.00,,,0.00,,2013-02-20 21:21:00,
2013-02-20 14:31:00,50.0,15.0,-100.00,NW,322,9.0,23.0,24,0.00,,,0.00,,2013-02-20 21:31:00,
2013-02-20 14:42:00,50.0,15.0,-100.00,NW,322,9.0,23.0,24,0.00,,,0.00,,2013-02-20 21:42:00,
2013-02-20 14:51:00,50.0,15.0,-100.00,NW,322,9.0,23.0,24,0.00,,,0.00,,2013-02-20 21:51:00,
2013-02-20 15:11:00,48.0,15.0,-100.00,West,274,11.0,26.0,26,0.00,,,0.00,,2013-02-20 22:11:00,
2013-02-20 15:21:00,48.0,15.0,-100.00,West,274,11.0,26.0,26,0.00,,,0.00,,2013-02-20 22:21:00,
2013-02-20 15:31:00,48.0,15.0,-100.00,West,274,11.0,26.0,26,0.00,,,0.00,,2013-02-20 22:31:00,
2013-02-20 15:42:00,48.0,15.0,-100.00,West,274,11.0,26.0,26,0.00,,,0.00,,2013-02-20 22:42:00,
2013-02-20 15:51:00,48.0,15.0,-100.00,West,274,11.0,26.0,26,0.00,,,0.00,,2013-02-20 22:51:00,
2013-02-20 16:12:00,51.0,15.0,-100.00,WNW,287,10.0,25.0,23,0.00,,,0.00,,2013-02-20 23:12:00,
2013-02-20 16:22:00,51.0,15.0,-100.00,WNW,287,10.0,25.0,23,0.00,,,0.00,,2013-02-20 23:22:00,
2013-02-20 16:32:00,51.0,15.0,-100.00,WNW,287,10.0,25.0,23,0.00,,,0.00,,2013-02-20 23:32:00,
2013-02-20 16:42:00,51.0,15.0,-100.00,WNW,287,10.0,25.0,23,0.00,,,0.00,,2013-02-20 23:42:00,
2013-02-20 16:52:00,51.0,15.0,-100.00,WNW,287,10.0,25.0,23,0.00,,,0.00,,2013-02-20 23:52:00,
2013-02-20 17:21:00,43.0,22.0,-100.00,WSW,244,8.0,28.0,43,0.00,,,0.00,,2013-02-21 00:21:00,
2013-02-20 17:32:00,43.0,22.0,-100.00,WSW,244,8.0,28.0,43,0.00,,,0.00,,2013-02-21 00:32:00,
2013-02-20 17:42:00,43.0,22.0,-100.00,WSW,244,8.0,28.0,43,0.00,,,0.00,,2013-02-21 00:42:00,
2013-02-20 17:52:00,43.0,22.0,-100.00,WSW,244,8.0,28.0,43,0.00,,,0.00,,2013-02-21 00:52:00,
2013-02-20 18:21:00,43.0,23.0,-100.00,WSW,255,5.0,19.0,45,0.00,,,0.00,,2013-02-21 01:21:00,
2013-02-20 18:32:00,43.0,23.0,-100.00,WSW,255,5.0,19.0,45,0.00,,,0.00,,2013-02-21 01:32:00,
2013-02-20 18:42:00,43.0,23.0,-100.00,WSW,255,5.0,19.0,45,0.00,,,0.00,,2013-02-21 01:42:00,
2013-02-20 18:51:00,43.0,23.0,-100.00,WSW,255,5.0,19.0,45,0.00,,,0.00,,2013-02-21 01:51:00,
2013-02-20 19:11:00,39.0,25.0,-100.00,SSE,153,4.0,8.0,57,0.00,,,0.00,,2013-02-21 02:11:00,
2013-02-20 19:21:00,39.0,25.0,-100.00,SSE,153,4.0,8.0,57,0.00,,,0.00,,2013-02-21 02:21:00,
2013-02-20 19:32:00,39.0,25.0,-100.00,SSE,153,4.0,8.0,57,0.00,,,0.00,,2013-02-21 02:32:00,
2013-02-20 19:42:00,39.0,25.0,-100.00,SSE,153,4.0,8.0,57,0.00,,,0.00,,2013-02-21 02:42:00,
2013-02-20 19:51:00,39.0,25.0,-100.00,SSE,153,4.0,8.0,57,0.00,,,0.00,,2013-02-21 02:51:00,
2013-02-20 20:12:00,40.0,28.0,-100.00,SE,129,3.0,6.0,63,0.00,,,0.00,,2013-02-21 03:12:00,
2013-02-20 20:21:00,40.0,28.0,-100.00,SE,129,3.0,6.0,63,0.00,,,0.00,,2013-02-21 03:21:00,
2013-02-20 20:32:00,40.0,28.0,-100.00,SE,129,3.0,6.0,63,0.00,,,0.00,,2013-02-21 03:32:00,
2013-02-20 20:42:00,40.0,28.0,-100.00,SE,129,3.0,6.0,63,0.00,,,0.00,,2013-02-21 03:42:00,
2013-02-20 20:51:00,40.0,28.0,-100.00,SE,129,3.0,6.0,63,0.00,,,0.00,,2013-02-21 03:51:00,
2013-02-20 21:22:00,37.0,25.0,-100.00,SSE,162,3.0,10.0,62,0.00,,,0.00,,2013-02-21 04:22:00,
2013-02-20 21:32:00,37.0,25.0,-100.00,SSE,162,3.0,10.0,62,0.00,,,0.00,,2013-02-21 04:32:00,
2013-02-20 21:42:00,37.0,25.0,-100.00,SSE,162,3.0,10.0,62,0.00,,,0.00,,2013-02-21 04:42:00,
2013-02-20 21:51:00,37.0,25.0,-100.00,SSE,162,3.0,10.0,62,0.00,,,0.00,,2013-02-21 04:51:00,
2013-02-20 21:53:00,36.0,27.0,-100.00,SSW,193,1.0,5.0,70,0.00,,,0.00,,2013-02-21 04:53:00,
2013-02-20 22:22:00,36.0,27.0,-100.00,SSW,193,1.0,5.0,70,0.00,,,0.00,,2013-02-21 05:22:00,
2013-02-20 22:34:00,36.0,27.0,-100.00,SSW,193,1.0,5.0,70,0.00,,,0.00,,2013-02-21 05:34:00,
2013-02-20 22:44:00,36.0,27.0,-100.00,SSW,193,1.0,5.0,70,0.00,,,0.00,,2013-02-21 05:44:00,
2013-02-20 23:11:00,36.0,26.0,-100.00,West,262,0.0,5.0,67,0.00,,,0.00,,2013-02-21 06:11:00,
2013-02-20 23:21:00,36.0,26.0,-100.00,West,262,0.0,5.0,67,0.00,,,0.00,,2013-02-21 06:21:00,
2013-02-20 23:31:00,36.0,26.0,-100.00,West,262,0.0,5.0,67,0.00,,,0.00,,2013-02-21 06:31:00,
2013-02-20 23:41:00,36.0,26.0,-100.00,West,262,0.0,5.0,67,0.00,,,0.00,,2013-02-21 06:41:00,
2013-02-20 23:51:00,36.0,26.0,-100.00,West,262,0.0,5.0,67,0.00,,,0.00,,2013-02-21 06:51:00,